Terminal Aerodrome Forecast
Issued by NWS Shreveport, LA

Home | Current Version | Previous Version | Text Only | Print | Product List | Glossary On
Versions: 1 2 3 4 5 6 7 8 9 10 11 12 13 14
000
FTUS44 KSHV 251720
TAFTYR
TAF
KTYR 251720Z 2518/2618 00000KT P6SM VCTS BKN050CB BKN100 BKN120
     FM252000 06007KT P6SM VCTS BKN045CB
      TEMPO 2520/2524 VRB15G25KT 3SM TSRA BKN050CB
     FM260100 10005KT P6SM FEW060 BKN150 BKN250
     FM260600 15003KT P6SM SCT150 BKN250
     FM261200 07005KT P6SM SCT250=

USA.gov is the U.S. government's official web portal to all federal, state and local government web resources and services.